createdAt,value
2018-11-05T00:01:35.745Z,45.53
2018-11-05T00:03:38.703Z,43.07
2018-11-05T00:05:41.756Z,41.90
2018-11-05T00:07:44.744Z,41.80
2018-11-05T00:09:47.712Z,42.80
2018-11-05T00:11:51.051Z,43.53
2018-11-05T00:13:54.037Z,43.00
2018-11-05T00:15:57.004Z,42.77
2018-11-05T00:18:00.143Z,41.90
2018-11-05T00:20:04.864Z,42.27
2018-11-05T00:22:08.059Z,42.67
2018-11-05T00:24:11.556Z,49.40
2018-11-05T00:26:14.561Z,40.60
2018-11-05T00:28:17.557Z,43.17
2018-11-05T00:30:20.950Z,43.37
2018-11-05T00:32:23.968Z,41.17
2018-11-05T00:34:27.026Z,43.13
2018-11-05T00:36:30.068Z,43.70
2018-11-05T00:38:34.294Z,42.33
2018-11-05T00:40:37.288Z,47.50
2018-11-05T00:42:40.975Z,43.40
2018-11-05T00:44:43.963Z,44.23
2018-11-05T00:46:46.952Z,44.30
2018-11-05T00:48:49.985Z,48.03
2018-11-05T00:50:53.012Z,46.70
2018-11-05T00:52:56.018Z,47.57
2018-11-05T00:54:59.269Z,46.17
2018-11-05T00:57:03.698Z,48.77
2018-11-05T00:59:06.742Z,44.00
2018-11-05T01:01:10.048Z,48.73
2018-11-05T01:03:13.038Z,46.17
2018-11-05T01:05:16.644Z,51.57
2018-11-05T01:07:19.934Z,50.17
2018-11-05T01:09:22.903Z,49.37
2018-11-05T01:11:25.920Z,51.67
2018-11-05T01:13:28.971Z,45.37
2018-11-05T01:15:34.005Z,47.97
2018-11-05T01:17:37.195Z,46.93
2018-11-05T01:19:40.186Z,52.23
2018-11-05T01:21:43.182Z,48.17
2018-11-05T01:23:46.132Z,50.00
2018-11-05T01:25:49.166Z,47.50
2018-11-05T01:27:52.188Z,47.40
2018-11-05T01:29:55.232Z,47.47
2018-11-05T01:31:58.171Z,49.33
2018-11-05T01:34:01.522Z,47.70
2018-11-05T01:36:05.137Z,47.87
2018-11-05T01:38:08.103Z,46.80
2018-11-05T01:40:12.861Z,51.20
2018-11-05T01:42:15.885Z,46.30
2018-11-05T01:44:18.844Z,45.80
2018-11-05T01:46:22.145Z,49.87
2018-11-05T01:48:25.142Z,46.53
2018-11-05T01:50:28.181Z,46.77
2018-11-05T01:52:31.467Z,47.20
2018-11-05T01:54:34.446Z,48.80
2018-11-05T01:56:37.407Z,46.70
2018-11-05T01:58:40.451Z,47.00
2018-11-05T02:00:43.424Z,50.00
2018-11-05T02:02:46.953Z,48.97
2018-11-05T02:04:49.969Z,48.37
2018-11-05T02:06:52.968Z,50.70
2018-11-05T02:08:55.977Z,49.90
2018-11-05T02:10:58.957Z,50.53
2018-11-05T02:13:03.655Z,49.13
2018-11-05T02:15:07.485Z,53.77
2018-11-05T02:17:10.450Z,49.83
2018-11-05T02:19:13.499Z,50.00
2018-11-05T02:21:16.587Z,51.07
2018-11-05T02:23:19.623Z,52.47
2018-11-05T02:25:22.629Z,50.87
2018-11-05T02:27:26.297Z,52.97
2018-11-05T02:29:29.601Z,54.83
2018-11-05T02:31:34.203Z,51.57
2018-11-05T02:33:37.228Z,48.87
2018-11-05T02:35:40.375Z,50.20
2018-11-05T02:37:44.031Z,48.73
2018-11-05T02:39:47.051Z,49.90
2018-11-05T02:41:50.091Z,50.07
2018-11-05T02:43:53.085Z,50.70
2018-11-05T02:45:56.100Z,49.60
2018-11-05T02:47:59.058Z,50.40
2018-11-05T02:50:04.095Z,51.30
2018-11-05T02:52:07.156Z,52.83
2018-11-05T02:54:11.039Z,50.80
2018-11-05T02:56:14.041Z,50.30
2018-11-05T02:58:17.335Z,49.20
2018-11-05T03:00:20.366Z,50.00
2018-11-05T03:02:23.375Z,50.43
2018-11-05T03:04:26.374Z,49.40
2018-11-05T03:06:29.390Z,51.70
2018-11-05T03:08:33.676Z,50.93
2018-11-05T03:10:36.714Z,52.27
2018-11-05T03:12:40.446Z,53.67
2018-11-05T03:14:43.460Z,51.30
2018-11-05T03:16:46.520Z,54.60
2018-11-05T03:18:49.536Z,53.00
2018-11-05T03:20:52.535Z,51.40
2018-11-05T03:22:55.595Z,53.50
2018-11-05T03:24:58.613Z,51.40
2018-11-05T03:27:02.989Z,49.67
2018-11-05T03:29:06.169Z,54.87
2018-11-05T03:31:09.205Z,51.40
2018-11-05T03:33:12.271Z,54.00
2018-11-05T03:35:15.532Z,55.63
2018-11-05T03:37:18.649Z,51.13
2018-11-05T03:39:21.727Z,50.37
2018-11-05T03:41:24.785Z,54.20
2018-11-05T03:43:28.245Z,51.80
2018-11-05T03:45:31.322Z,53.10
2018-11-05T03:47:35.720Z,50.57
2018-11-05T03:49:38.886Z,53.10
2018-11-05T03:51:41.951Z,52.77
2018-11-05T03:53:45.061Z,52.90
2018-11-05T03:55:48.186Z,50.87
2018-11-05T03:57:51.307Z,52.27
2018-11-05T03:59:54.432Z,55.17
2018-11-05T04:01:57.590Z,49.33
2018-11-05T04:04:00.680Z,53.50
2018-11-05T04:06:05.963Z,49.27
2018-11-05T04:08:09.093Z,51.47
2018-11-05T04:10:13.033Z,51.70
2018-11-05T04:12:16.239Z,53.43
2018-11-05T04:14:19.369Z,49.90
2018-11-05T04:16:22.473Z,57.37
2018-11-05T04:18:25.568Z,52.60
2018-11-05T04:20:28.655Z,52.50
2018-11-05T04:22:33.065Z,53.33
2018-11-05T04:24:36.187Z,53.87
2018-11-05T04:26:40.392Z,51.17
2018-11-05T04:28:43.571Z,56.07
2018-11-05T04:30:46.683Z,52.30
2018-11-05T04:32:49.775Z,50.57
2018-11-05T04:34:52.881Z,48.97
2018-11-05T04:36:55.975Z,54.03
2018-11-05T04:38:59.083Z,51.63
2018-11-05T04:41:03.732Z,50.87
2018-11-05T04:43:07.232Z,55.27
2018-11-05T04:45:11.659Z,55.33
2018-11-05T04:47:14.716Z,51.33
2018-11-05T04:49:17.808Z,49.43
2018-11-05T04:51:20.981Z,49.10
2018-11-05T04:53:24.095Z,51.73
2018-11-05T04:55:27.192Z,49.87
2018-11-05T04:57:30.362Z,53.70
2018-11-05T04:59:34.842Z,49.50
2018-11-05T05:01:38.018Z,54.27
2018-11-05T05:03:41.274Z,50.07
2018-11-05T05:05:44.372Z,49.90
2018-11-05T05:07:47.530Z,52.47
2018-11-05T05:09:50.654Z,49.60
2018-11-05T05:11:53.777Z,50.20
2018-11-05T05:13:56.863Z,52.07
2018-11-05T05:16:00.022Z,50.13
2018-11-05T05:18:04.500Z,51.07
2018-11-05T05:20:10.587Z,49.47
2018-11-05T05:22:13.747Z,54.03
2018-11-05T05:24:16.911Z,48.30
2018-11-05T05:26:20.015Z,48.97
2018-11-05T05:28:23.077Z,48.30
2018-11-05T05:30:26.230Z,48.27
2018-11-05T05:32:29.375Z,48.63
2018-11-05T05:34:34.188Z,49.80
2018-11-05T05:36:37.322Z,47.57
2018-11-05T05:38:40.532Z,52.33
2018-11-05T05:40:43.687Z,50.30
2018-11-05T05:42:46.866Z,50.87
2018-11-05T05:44:49.990Z,50.97
2018-11-05T05:46:53.115Z,50.63
2018-11-05T05:48:56.242Z,50.13
2018-11-05T05:50:59.367Z,52.47
2018-11-05T05:53:03.989Z,48.10
2018-11-05T05:55:07.727Z,50.17
2018-11-05T05:57:10.811Z,50.60
2018-11-05T05:59:13.892Z,48.23
2018-11-05T06:01:16.933Z,48.30
2018-11-05T06:03:20.082Z,50.27
2018-11-05T06:05:23.200Z,48.70
2018-11-05T06:07:26.281Z,50.37
2018-11-05T06:09:29.411Z,50.43
2018-11-05T06:11:33.963Z,49.37
2018-11-05T06:13:37.046Z,46.27
2018-11-05T06:15:40.197Z,49.70
2018-11-05T06:17:43.352Z,56.73
2018-11-05T06:19:46.459Z,47.70
2018-11-05T06:21:49.868Z,49.60
2018-11-05T06:23:52.957Z,48.20
2018-11-05T06:25:56.097Z,49.17
2018-11-05T06:27:59.212Z,46.50
2018-11-05T06:30:04.358Z,47.50
2018-11-05T06:32:07.835Z,48.77
2018-11-05T06:34:11.757Z,48.17
2018-11-05T06:36:14.823Z,48.33
2018-11-05T06:38:18.036Z,52.03
2018-11-05T06:40:21.647Z,48.60
2018-11-05T06:42:24.927Z,50.77
2018-11-05T06:44:28.096Z,51.73
2018-11-05T06:46:31.184Z,47.43
2018-11-05T06:48:35.647Z,47.50
2018-11-05T06:50:38.854Z,46.37
2018-11-05T06:52:42.730Z,46.60
2018-11-05T06:54:45.819Z,49.20
2018-11-05T06:56:49.000Z,49.47
2018-11-05T06:58:52.075Z,48.00
2018-11-05T07:00:55.162Z,47.17
2018-11-05T07:02:58.306Z,46.60
2018-11-05T07:05:01.467Z,47.50
2018-11-05T07:07:05.045Z,46.37
2018-11-05T07:09:09.945Z,47.97
2018-11-05T07:11:13.102Z,47.33
2018-11-05T07:13:16.202Z,47.00
2018-11-05T07:15:19.659Z,46.53
2018-11-05T07:17:22.733Z,45.27
2018-11-05T07:19:25.890Z,47.40
2018-11-05T07:21:29.257Z,48.40
2018-11-05T07:23:32.817Z,45.97
2018-11-05T07:25:35.964Z,46.93
2018-11-05T07:27:39.182Z,46.70
2018-11-05T07:29:42.438Z,45.73
2018-11-05T07:31:45.565Z,46.33
2018-11-05T07:33:48.943Z,44.60
2018-11-05T07:35:51.842Z,43.03
2018-11-05T07:37:54.958Z,49.57
2018-11-05T07:39:58.185Z,46.23
2018-11-05T07:42:01.348Z,45.00
2018-11-05T07:44:06.418Z,47.27
2018-11-05T07:46:09.531Z,44.10
2018-11-05T07:48:12.658Z,43.53
2018-11-05T07:50:16.710Z,44.80
2018-11-05T07:52:19.972Z,44.23
2018-11-05T07:54:23.064Z,46.13
2018-11-05T07:56:26.501Z,46.20
2018-11-05T07:58:29.615Z,46.07
2018-11-05T08:01:07.357Z,45.77
2018-11-05T08:03:10.469Z,47.43
2018-11-05T08:05:14.346Z,44.50
2018-11-05T08:07:17.433Z,44.50
2018-11-05T08:09:20.539Z,45.50
2018-11-05T08:11:23.657Z,48.53
2018-11-05T08:13:26.914Z,46.33
2018-11-05T08:15:30.381Z,45.80
2018-11-05T08:17:35.318Z,42.83
2018-11-05T08:19:38.491Z,45.17
2018-11-05T08:21:42.088Z,45.07
2018-11-05T08:23:45.179Z,47.90
2018-11-05T08:25:48.341Z,45.40
2018-11-05T08:27:51.484Z,48.30
2018-11-05T08:29:54.642Z,44.40
2018-11-05T08:31:57.768Z,45.30
2018-11-05T08:34:01.101Z,41.60
2018-11-05T08:36:05.733Z,43.60
2018-11-05T08:38:09.087Z,46.43
2018-11-05T08:40:18.968Z,45.30
2018-11-05T08:42:21.988Z,44.57
2018-11-05T08:44:25.128Z,44.90
2018-11-05T08:46:28.270Z,43.07
2018-11-05T08:48:31.396Z,42.97
2018-11-05T08:50:35.982Z,44.30
2018-11-05T08:52:39.415Z,41.23
2018-11-05T08:54:42.537Z,42.97
2018-11-05T08:56:45.617Z,42.10
2018-11-05T08:58:48.702Z,44.47
2018-11-05T09:01:00.463Z,42.03
2018-11-05T09:03:05.148Z,43.10
2018-11-05T09:05:09.694Z,42.10
2018-11-05T09:07:12.734Z,43.30
2018-11-05T09:09:15.803Z,41.60
2018-11-05T09:11:19.369Z,41.40
2018-11-05T09:13:22.045Z,41.63
2018-11-05T09:15:25.183Z,41.20
2018-11-05T09:17:28.537Z,42.17
2018-11-05T09:19:33.232Z,41.57
2018-11-05T09:21:36.359Z,42.03
2018-11-05T09:23:39.492Z,44.30
2018-11-05T09:25:42.651Z,41.17
2018-11-05T09:27:45.852Z,42.43
2018-11-05T09:29:48.975Z,45.87
2018-11-05T09:31:52.073Z,43.57
2018-11-05T09:33:55.147Z,40.27
2018-11-05T09:35:58.247Z,42.53
2018-11-05T09:38:01.403Z,44.67
2018-11-05T09:40:08.492Z,43.37
2018-11-05T09:42:12.048Z,39.60
2018-11-05T09:44:15.143Z,40.80
2018-11-05T09:46:18.273Z,40.40
2018-11-05T09:48:21.467Z,40.23
2018-11-05T09:50:24.635Z,40.27
2018-11-05T09:52:27.683Z,40.90
2018-11-05T09:54:31.142Z,39.50
2018-11-05T09:56:34.736Z,40.30
2018-11-05T09:58:37.821Z,39.70
2018-11-05T10:00:41.076Z,41.10
2018-11-05T10:02:49.919Z,39.27
2018-11-05T10:04:53.256Z,41.10
2018-11-05T10:06:56.166Z,41.07
2018-11-05T10:08:59.251Z,40.90
2018-11-05T10:11:03.725Z,38.40
2018-11-05T10:13:06.811Z,40.00
2018-11-05T10:15:11.132Z,40.90
2018-11-05T10:17:14.266Z,38.67
2018-11-05T10:19:17.336Z,37.80
2018-11-05T10:21:20.431Z,38.27
2018-11-05T10:23:23.563Z,38.83
2018-11-05T10:25:26.633Z,38.47
2018-11-05T10:27:29.751Z,39.70
2018-11-05T10:29:34.346Z,39.83
2018-11-05T10:31:37.528Z,37.57
2018-11-05T10:33:42.552Z,39.80
2018-11-05T10:35:51.269Z,40.00
2018-11-05T10:37:54.399Z,37.80
2018-11-05T10:39:57.545Z,35.97
2018-11-05T10:42:00.642Z,37.80
2018-11-05T10:44:05.602Z,38.30
2018-11-05T10:46:08.722Z,38.53
2018-11-05T10:48:11.976Z,36.80
2018-11-05T10:50:16.141Z,37.00
2018-11-05T10:52:19.331Z,36.73
2018-11-05T10:54:22.451Z,37.70
2018-11-05T10:56:25.589Z,36.63
2018-11-05T10:58:28.733Z,35.43
2018-11-05T11:00:37.449Z,37.50
2018-11-05T11:02:40.628Z,38.03
2018-11-05T11:04:43.786Z,37.00
2018-11-05T11:06:46.914Z,38.70
2018-11-05T11:08:50.570Z,36.70
2018-11-05T11:10:53.656Z,35.30
2018-11-05T11:12:57.047Z,36.80
2018-11-05T11:15:00.348Z,38.40
2018-11-05T11:17:05.099Z,37.23
2018-11-05T11:19:08.242Z,36.97
2018-11-05T11:21:11.475Z,37.03
2018-11-05T11:23:14.625Z,34.93
2018-11-05T11:25:17.875Z,38.40
2018-11-05T11:27:21.370Z,36.07
2018-11-05T11:29:24.660Z,37.97
2018-11-05T11:31:27.632Z,36.13
2018-11-05T11:33:30.784Z,35.67
2018-11-05T11:35:35.136Z,35.93
2018-11-05T11:37:38.511Z,34.77
2018-11-05T11:39:41.728Z,36.03
2018-11-05T11:41:44.792Z,37.40
2018-11-05T11:43:47.913Z,36.00
2018-11-05T11:45:51.086Z,33.10
2018-11-05T11:47:54.216Z,35.57
2018-11-05T11:49:57.391Z,35.50
2018-11-05T11:52:00.537Z,36.17
2018-11-05T11:54:05.337Z,33.60
2018-11-05T11:56:08.543Z,33.40
2018-11-05T11:58:11.694Z,36.43
2018-11-05T12:00:18.319Z,36.00
2018-11-05T12:02:21.564Z,33.87
2018-11-05T12:04:24.722Z,32.70
2018-11-05T12:06:27.831Z,33.07
2018-11-05T12:08:31.028Z,34.27
2018-11-05T12:10:35.580Z,35.10
2018-11-05T12:12:38.776Z,32.73
2018-11-05T12:14:42.004Z,34.13
2018-11-05T12:16:45.039Z,33.70
2018-11-05T12:18:48.127Z,34.53
2018-11-05T12:20:51.254Z,33.83
2018-11-05T12:22:54.387Z,32.20
2018-11-05T12:24:57.523Z,32.10
2018-11-05T12:27:00.738Z,33.07
2018-11-05T12:29:05.179Z,33.50
2018-11-05T12:31:08.248Z,31.87
2018-11-05T12:33:11.400Z,33.33
2018-11-05T12:35:14.560Z,32.87
2018-11-05T12:37:17.726Z,34.07
2018-11-05T12:39:20.840Z,33.10
2018-11-05T12:41:23.919Z,32.30
2018-11-05T12:43:27.250Z,35.00
2018-11-05T12:45:30.320Z,31.10
2018-11-05T12:47:34.869Z,32.30
2018-11-05T12:49:38.014Z,32.47
2018-11-05T12:51:41.192Z,31.90
2018-11-05T12:53:44.328Z,34.10
2018-11-05T12:55:47.528Z,32.10
2018-11-05T12:57:50.642Z,32.50
2018-11-05T12:59:53.762Z,31.37
2018-11-05T13:01:58.771Z,32.80
2018-11-05T13:04:03.490Z,31.80
2018-11-05T13:06:06.896Z,31.17
2018-11-05T13:08:10.083Z,31.97
2018-11-05T13:10:13.269Z,32.10
2018-11-05T13:12:16.419Z,30.83
2018-11-05T13:14:20.134Z,32.30
2018-11-05T13:16:23.233Z,30.50
2018-11-05T13:18:26.380Z,32.07
2018-11-05T13:20:29.502Z,31.63
2018-11-05T13:22:32.983Z,32.60
2018-11-05T13:24:36.087Z,30.23
2018-11-05T13:26:39.304Z,31.10
2018-11-05T13:28:42.544Z,32.77
2018-11-05T13:30:45.630Z,31.93
2018-11-05T13:32:48.760Z,29.73
2018-11-05T13:34:52.140Z,31.60
2018-11-05T13:36:55.403Z,28.37
2018-11-05T13:38:58.318Z,30.87
2018-11-05T13:41:03.617Z,31.30
2018-11-05T13:43:06.670Z,31.00
2018-11-05T13:45:11.191Z,31.80
2018-11-05T13:47:14.903Z,32.10
2018-11-05T13:49:17.628Z,32.63
2018-11-05T13:51:20.578Z,30.93
2018-11-05T13:53:23.750Z,31.13
2018-11-05T13:55:26.871Z,29.63
2018-11-05T13:57:30.030Z,29.53
2018-11-05T13:59:35.037Z,31.63
2018-11-05T14:01:38.143Z,33.10
2018-11-05T14:03:41.263Z,32.00
2018-11-05T14:05:44.497Z,31.77
2018-11-05T14:07:47.584Z,32.53
2018-11-05T14:09:50.733Z,30.53
2018-11-05T14:11:53.867Z,32.50
2018-11-05T14:13:57.018Z,32.77
2018-11-05T14:16:00.144Z,32.50
2018-11-05T14:18:04.605Z,32.57
2018-11-05T14:20:09.142Z,31.90
2018-11-05T14:22:12.294Z,33.53
2018-11-05T14:24:15.373Z,32.03
2018-11-05T14:26:18.655Z,30.93
2018-11-05T14:28:22.374Z,31.27
2018-11-05T14:30:25.288Z,32.27
2018-11-05T14:32:28.415Z,33.53
2018-11-05T14:34:31.545Z,34.70
2018-11-05T14:36:35.130Z,31.03
2018-11-05T14:38:38.289Z,31.90
2018-11-05T14:40:41.348Z,31.30
2018-11-05T14:42:44.549Z,30.67
2018-11-05T14:44:47.640Z,31.23
2018-11-05T14:46:50.741Z,31.97
2018-11-05T14:48:53.911Z,30.03
2018-11-05T14:50:57.074Z,30.70
2018-11-05T14:53:00.084Z,30.87
2018-11-05T14:55:05.233Z,31.30
2018-11-05T14:57:08.543Z,30.50
2018-11-05T14:59:11.628Z,29.93
2018-11-05T15:01:14.723Z,28.00
2018-11-05T15:03:17.822Z,30.83
2018-11-05T15:05:20.997Z,29.47
2018-11-05T15:07:24.106Z,29.57
2018-11-05T15:09:27.240Z,30.73
2018-11-05T15:11:30.384Z,32.37
2018-11-05T15:13:35.142Z,32.37
2018-11-05T15:15:38.248Z,33.80
2018-11-05T15:17:42.081Z,33.37
2018-11-05T15:19:45.952Z,31.67
2018-11-05T15:21:48.694Z,31.20
2018-11-05T15:23:51.749Z,30.83
2018-11-05T15:25:54.963Z,31.47
2018-11-05T15:27:58.096Z,29.53
2018-11-05T15:30:01.197Z,29.90
2018-11-05T15:32:06.817Z,29.60
2018-11-05T15:34:09.936Z,30.80
2018-11-05T15:36:13.620Z,30.17
2018-11-05T15:38:17.023Z,28.47
2018-11-05T15:40:21.056Z,28.87
2018-11-05T15:42:24.160Z,26.30
2018-11-05T15:44:27.253Z,27.30
2018-11-05T15:46:30.355Z,28.00
2018-11-05T15:48:35.107Z,28.90
2018-11-05T15:50:40.249Z,25.20
2018-11-05T15:52:43.699Z,26.73
2018-11-05T15:54:46.450Z,25.90
2018-11-05T15:56:50.432Z,26.07
2018-11-05T15:58:53.547Z,27.27
2018-11-05T16:00:56.749Z,26.33
2018-11-05T16:03:00.807Z,24.27
2018-11-05T16:05:05.558Z,26.37
2018-11-05T16:07:08.974Z,24.30
2018-11-05T16:09:12.145Z,22.80
2018-11-05T16:11:15.264Z,24.80
2018-11-05T16:13:18.380Z,24.47
2018-11-05T16:15:21.548Z,23.93
2018-11-05T16:17:24.667Z,23.53
2018-11-05T16:19:27.763Z,23.17
2018-11-05T16:21:31.037Z,24.47
2018-11-05T16:23:35.764Z,25.00
2018-11-05T16:25:38.992Z,24.57
2018-11-05T16:27:42.347Z,23.80
2018-11-05T16:29:45.454Z,24.17
2018-11-05T16:31:48.527Z,24.20
2018-11-05T16:33:51.740Z,23.53
2018-11-05T16:35:55.256Z,22.70
2018-11-05T16:37:58.329Z,23.63
2018-11-05T16:40:01.474Z,22.83
2018-11-05T16:42:04.904Z,23.33
2018-11-05T16:44:08.497Z,23.10
2018-11-05T16:46:11.627Z,24.20
2018-11-05T16:48:14.755Z,23.63
2018-11-05T16:50:24.179Z,23.20
2018-11-05T16:52:27.310Z,23.93
2018-11-05T16:54:30.396Z,24.30
2018-11-05T16:56:35.935Z,23.27
2018-11-05T16:58:39.067Z,24.37
2018-11-05T17:00:42.304Z,25.70
2018-11-05T17:02:46.279Z,25.50
2018-11-05T17:04:49.207Z,25.80
2018-11-05T17:06:52.421Z,26.17
2018-11-05T17:08:55.548Z,26.27
2018-11-05T17:10:58.643Z,25.57
2018-11-05T17:13:03.381Z,27.20
2018-11-05T17:15:08.784Z,26.85
2018-11-05T17:17:12.179Z,26.60
2018-11-05T17:19:15.365Z,28.37
2018-11-05T17:21:18.570Z,27.57
2018-11-05T17:23:21.721Z,27.80
2018-11-05T17:25:24.877Z,26.80
2018-11-05T17:27:27.964Z,29.80
2018-11-05T17:29:31.076Z,28.40
2018-11-05T17:31:35.849Z,29.70
2018-11-05T17:33:39.094Z,30.93
2018-11-05T17:35:42.241Z,30.37
2018-11-05T17:37:46.099Z,30.10
2018-11-05T17:39:50.396Z,29.70
2018-11-05T17:41:53.980Z,28.67
2018-11-05T17:43:57.102Z,31.17
2018-11-05T17:46:00.313Z,27.07
2018-11-05T17:48:05.164Z,28.67
2018-11-05T17:50:11.633Z,29.07
2018-11-05T17:52:14.684Z,27.87
2018-11-05T17:54:17.777Z,29.20
2018-11-05T17:56:21.187Z,30.13
2018-11-05T17:58:25.310Z,30.40
2018-11-05T18:00:28.518Z,30.93
2018-11-05T18:02:33.271Z,28.93
2018-11-05T18:04:36.537Z,30.07
2018-11-05T18:06:39.761Z,29.20
2018-11-05T18:08:42.932Z,30.33
2018-11-05T18:10:46.066Z,27.87
2018-11-05T18:12:49.260Z,29.90
2018-11-05T18:14:52.821Z,30.57
2018-11-05T18:16:56.069Z,29.80
2018-11-05T18:18:59.913Z,29.60
2018-11-05T18:21:04.690Z,29.93
2018-11-05T18:23:08.232Z,30.40
2018-11-05T18:25:12.850Z,29.27
2018-11-05T18:27:15.937Z,28.17
2018-11-05T18:29:19.047Z,31.37
2018-11-05T18:31:22.363Z,27.10
2018-11-05T18:33:25.440Z,28.67
2018-11-05T18:35:28.520Z,27.70
2018-11-05T18:37:33.768Z,27.50
2018-11-05T18:39:36.880Z,30.87
2018-11-05T18:41:40.235Z,28.23
2018-11-05T18:43:43.432Z,29.83
2018-11-05T18:45:46.542Z,27.40
2018-11-05T18:47:49.792Z,27.50
2018-11-05T18:49:53.206Z,29.40
2018-11-05T18:51:56.447Z,26.00
2018-11-05T18:53:59.631Z,30.23
2018-11-05T18:56:04.299Z,27.43
2018-11-05T18:58:07.421Z,27.20
2018-11-05T19:00:21.715Z,28.47
2018-11-05T19:02:28.728Z,29.73
2018-11-05T19:04:33.575Z,30.23
2018-11-05T19:06:36.695Z,28.13
2018-11-05T19:08:39.951Z,28.00
2018-11-05T19:10:43.071Z,28.47
2018-11-05T19:12:46.728Z,27.13
2018-11-05T19:14:49.833Z,29.70
2018-11-05T19:16:52.969Z,27.50
2018-11-05T19:18:56.412Z,26.80
2018-11-05T19:20:59.491Z,27.63
2018-11-05T19:23:04.063Z,26.70
2018-11-05T19:25:08.819Z,29.13
2018-11-05T19:27:11.836Z,28.70
2018-11-05T19:29:14.912Z,28.67
2018-11-05T19:31:18.046Z,30.50
2018-11-05T19:33:21.244Z,30.97
2018-11-05T19:35:24.363Z,31.90
2018-11-05T19:37:28.818Z,28.97
2018-11-05T19:39:33.280Z,27.60
2018-11-05T19:41:36.399Z,28.27
2018-11-05T19:43:39.900Z,26.73
2018-11-05T19:45:42.978Z,27.10
2018-11-05T19:47:46.139Z,28.90
2018-11-05T19:49:49.425Z,30.17
2018-11-05T19:51:52.898Z,28.90
2018-11-05T19:53:56.091Z,29.80
2018-11-05T19:55:59.484Z,26.90
2018-11-05T19:58:03.929Z,29.37
2018-11-05T20:00:15.163Z,30.40
2018-11-05T20:02:18.452Z,29.50
2018-11-05T20:04:22.019Z,30.40
2018-11-05T20:06:25.102Z,29.90
2018-11-05T20:08:28.548Z,32.03
2018-11-05T20:10:33.536Z,31.50
2018-11-05T20:12:36.663Z,31.07
2018-11-05T20:14:39.793Z,32.13
2018-11-05T20:16:43.873Z,30.50
2018-11-05T20:18:47.133Z,33.47
2018-11-05T20:20:50.315Z,29.10
2018-11-05T20:22:53.983Z,33.53
2018-11-05T20:24:57.172Z,31.60
2018-11-05T20:27:00.255Z,31.80
2018-11-05T20:29:04.733Z,32.07
2018-11-05T20:31:07.933Z,31.77
2018-11-05T20:33:11.142Z,28.90
2018-11-05T20:35:14.380Z,28.07
2018-11-05T20:37:17.607Z,29.40
2018-11-05T20:39:20.807Z,30.57
2018-11-05T20:41:24.102Z,30.20
2018-11-05T20:43:27.206Z,27.40
2018-11-05T20:45:30.307Z,30.20
2018-11-05T20:47:35.380Z,27.77
2018-11-05T20:49:38.615Z,30.80
2018-11-05T20:51:41.686Z,30.40
2018-11-05T20:53:44.872Z,32.47
2018-11-05T20:55:48.922Z,30.47
2018-11-05T20:57:52.130Z,31.20
2018-11-05T20:59:55.753Z,32.07
2018-11-05T21:01:58.888Z,32.73
2018-11-05T21:04:03.632Z,29.13
2018-11-05T21:06:06.775Z,30.50
2018-11-05T21:08:09.890Z,30.20
2018-11-05T21:10:13.898Z,30.40
2018-11-05T21:12:17.069Z,29.00
2018-11-05T21:14:20.183Z,30.83
2018-11-05T21:16:23.570Z,30.90
2018-11-05T21:18:26.874Z,31.43
2018-11-05T21:20:30.011Z,30.97
2018-11-05T21:22:34.244Z,29.70
2018-11-05T21:24:37.371Z,31.10
2018-11-05T21:26:40.483Z,31.20
2018-11-05T21:28:43.779Z,30.53
2018-11-05T21:30:46.856Z,29.43
2018-11-05T21:32:50.097Z,31.63
2018-11-05T21:34:53.219Z,30.83
2018-11-05T21:36:56.308Z,29.60
2018-11-05T21:38:59.530Z,30.17
2018-11-05T21:41:04.335Z,29.27
2018-11-05T21:43:07.557Z,29.50
2018-11-05T21:45:11.952Z,28.30
2018-11-05T21:47:15.126Z,30.03
2018-11-05T21:49:18.261Z,30.23
2018-11-05T21:51:21.423Z,31.47
2018-11-05T21:53:24.521Z,30.00
2018-11-05T21:55:27.757Z,28.50
2018-11-05T21:57:30.922Z,27.47
2018-11-05T21:59:35.332Z,28.30
2018-11-05T22:01:38.501Z,28.57
2018-11-05T22:03:42.718Z,26.73
2018-11-05T22:05:45.831Z,27.20
2018-11-05T22:07:49.123Z,28.90
2018-11-05T22:09:52.348Z,26.57
2018-11-05T22:11:55.631Z,27.20
2018-11-05T22:13:58.789Z,28.83
2018-11-05T22:16:08.118Z,26.90
2018-11-05T22:18:11.797Z,28.50
2018-11-05T22:20:14.896Z,27.10
2018-11-05T22:22:18.347Z,26.43
2018-11-05T22:24:22.585Z,28.83
2018-11-05T22:26:25.689Z,26.47
2018-11-05T22:28:28.847Z,27.33
2018-11-05T22:30:33.188Z,26.53
2018-11-05T22:32:36.558Z,27.97
2018-11-05T22:34:39.663Z,26.90
2018-11-05T22:36:42.768Z,37.27
2018-11-05T22:38:45.908Z,26.20
2018-11-05T22:40:48.995Z,26.00
2018-11-05T22:42:57.755Z,27.40
2018-11-05T22:45:00.859Z,24.80
2018-11-05T22:47:05.761Z,24.40
2018-11-05T22:49:08.866Z,25.47
2018-11-05T22:51:12.012Z,24.93
2018-11-05T22:53:15.123Z,24.83
2018-11-05T22:55:18.204Z,25.33
2018-11-05T22:57:21.595Z,27.17
2018-11-05T22:59:24.734Z,24.37
2018-11-05T23:01:33.457Z,24.50
2018-11-05T23:03:36.580Z,25.10
2018-11-05T23:05:39.736Z,24.80
2018-11-05T23:07:42.806Z,22.80
2018-11-05T23:09:46.180Z,22.70
2018-11-05T23:11:49.276Z,23.13
2018-11-05T23:13:52.426Z,24.03
2018-11-05T23:15:55.967Z,24.97
2018-11-05T23:17:59.231Z,23.30
2018-11-05T23:20:04.256Z,24.03
2018-11-05T23:22:07.417Z,23.40
2018-11-05T23:24:10.966Z,23.50
2018-11-05T23:26:14.075Z,26.80
2018-11-05T23:28:17.288Z,23.40
2018-11-05T23:30:20.416Z,24.73
2018-11-05T23:32:23.644Z,23.73
2018-11-05T23:34:26.770Z,23.60
2018-11-05T23:36:29.930Z,23.90
2018-11-05T23:38:35.020Z,24.17
2018-11-05T23:40:38.165Z,23.13
2018-11-05T23:42:41.350Z,22.70
2018-11-05T23:44:44.481Z,23.73
2018-11-05T23:46:48.035Z,24.27
2018-11-05T23:48:51.190Z,24.87
2018-11-05T23:50:54.347Z,25.30
2018-11-05T23:52:57.457Z,24.63
2018-11-05T23:55:00.562Z,22.63
2018-11-05T23:57:04.851Z,24.60
2018-11-05T23:59:07.946Z,25.43
